createdAt,value
2023-04-30T00:00:08.534Z,2.77
2023-04-30T00:02:35.285Z,3.20
2023-04-30T00:05:02.143Z,2.97
2023-04-30T00:07:28.569Z,2.97
2023-04-30T00:09:55.216Z,2.83
2023-04-30T00:12:21.916Z,3.40
2023-04-30T00:14:49.321Z,2.87
2023-04-30T00:17:16.132Z,2.70
2023-04-30T00:19:42.668Z,3.20
2023-04-30T00:22:09.179Z,2.60
2023-04-30T00:24:35.575Z,2.67
2023-04-30T00:27:01.968Z,2.67
2023-04-30T00:29:28.445Z,3.37
2023-04-30T00:31:54.875Z,2.90
2023-04-30T00:34:21.299Z,3.20
2023-04-30T00:36:47.686Z,2.93
2023-04-30T00:39:14.140Z,2.80
2023-04-30T00:41:41.318Z,3.07
2023-04-30T00:44:07.722Z,3.40
2023-04-30T00:46:34.143Z,2.70
2023-04-30T00:49:04.645Z,2.50
2023-04-30T00:51:35.596Z,2.37
2023-04-30T00:54:03.290Z,2.83
2023-04-30T00:56:33.210Z,3.40
2023-04-30T00:58:59.703Z,3.10
2023-04-30T01:01:28.964Z,3.13
2023-04-30T01:03:55.526Z,3.07
2023-04-30T01:06:22.134Z,3.20
2023-04-30T01:08:48.716Z,4.37
2023-04-30T01:11:42.851Z,3.47
2023-04-30T01:14:13.827Z,3.43
2023-04-30T01:16:44.149Z,3.30
2023-04-30T01:19:36.659Z,3.60
2023-04-30T01:22:04.585Z,4.00
2023-04-30T01:24:41.548Z,3.60
2023-04-30T01:27:16.456Z,3.33
2023-04-30T01:29:43.565Z,3.47
2023-04-30T01:32:11.358Z,4.03
2023-04-30T01:34:38.020Z,3.80
2023-04-30T01:37:12.957Z,4.07
2023-04-30T01:40:02.162Z,3.53
2023-04-30T01:42:47.635Z,4.33
2023-04-30T01:45:26.258Z,3.97
2023-04-30T01:48:14.436Z,4.00
2023-04-30T01:51:05.629Z,4.67
2023-04-30T01:53:34.946Z,4.37
2023-04-30T01:56:06.190Z,4.00
2023-04-30T01:58:32.639Z,4.57
2023-04-30T02:00:59.010Z,4.17
2023-04-30T02:03:25.532Z,3.93
2023-04-30T02:05:53.064Z,4.43
2023-04-30T02:08:19.498Z,4.00
2023-04-30T02:10:45.894Z,4.10
2023-04-30T02:13:12.321Z,4.70
2023-04-30T02:15:38.942Z,4.30
2023-04-30T02:18:05.366Z,3.50
2023-04-30T02:20:31.814Z,4.80
2023-04-30T02:22:58.272Z,4.63
2023-04-30T02:25:24.674Z,4.53
2023-04-30T02:27:51.357Z,4.27
2023-04-30T02:30:19.726Z,4.73
2023-04-30T02:32:46.197Z,4.97
2023-04-30T02:35:12.655Z,4.57
2023-04-30T02:37:39.212Z,3.97
2023-04-30T02:40:06.686Z,4.10
2023-04-30T02:42:33.075Z,4.73
2023-04-30T02:44:59.461Z,4.13
2023-04-30T02:47:25.956Z,4.20
2023-04-30T02:49:52.727Z,5.10
2023-04-30T02:52:19.415Z,4.47
2023-04-30T02:54:45.787Z,4.93
2023-04-30T02:57:12.335Z,4.43
2023-04-30T02:59:38.826Z,5.07
2023-04-30T03:02:05.735Z,4.83
2023-04-30T03:04:32.132Z,4.60
2023-04-30T03:07:00.469Z,5.07
2023-04-30T03:09:26.933Z,5.40
2023-04-30T03:11:53.336Z,4.60
2023-04-30T03:14:19.722Z,5.03
2023-04-30T03:16:46.284Z,4.93
2023-04-30T03:19:12.804Z,5.20
2023-04-30T03:21:39.157Z,5.47
2023-04-30T03:24:06.098Z,4.80
2023-04-30T03:26:32.648Z,5.67
2023-04-30T03:29:00.706Z,5.30
2023-04-30T03:31:27.145Z,5.73
2023-04-30T03:33:53.599Z,5.57
2023-04-30T03:36:20.292Z,5.80
2023-04-30T03:38:46.664Z,5.47
2023-04-30T03:41:13.028Z,5.40
2023-04-30T03:43:39.436Z,5.83
2023-04-30T03:46:05.866Z,5.67
2023-04-30T03:48:32.434Z,5.27
2023-04-30T03:50:58.847Z,5.53
2023-04-30T03:53:26.571Z,5.03
2023-04-30T03:55:53.837Z,5.93
2023-04-30T03:58:21.357Z,5.30
2023-04-30T04:00:48.187Z,5.77
2023-04-30T04:03:15.568Z,4.93
2023-04-30T04:05:41.996Z,5.53
2023-04-30T04:08:08.541Z,5.50
2023-04-30T04:10:35.052Z,5.43
2023-04-30T04:13:01.531Z,5.40
2023-04-30T04:15:27.907Z,5.50
2023-04-30T04:17:54.302Z,5.50
2023-04-30T04:20:20.709Z,6.73
2023-04-30T04:22:47.144Z,5.70
2023-04-30T04:25:13.947Z,5.73
2023-04-30T04:27:40.381Z,5.63
2023-04-30T04:30:07.591Z,5.50
2023-04-30T04:32:46.554Z,5.40
2023-04-30T04:35:16.716Z,5.13
2023-04-30T04:37:43.134Z,5.80
2023-04-30T04:40:10.768Z,5.73
2023-04-30T04:42:38.315Z,5.63
2023-04-30T04:45:08.036Z,5.77
2023-04-30T04:47:34.511Z,5.83
2023-04-30T04:50:00.933Z,5.40
2023-04-30T04:52:27.324Z,5.17
2023-04-30T04:54:54.006Z,5.87
2023-04-30T04:57:20.412Z,6.00
2023-04-30T04:59:46.944Z,6.40
2023-04-30T05:02:13.322Z,5.03
2023-04-30T05:04:39.724Z,5.33
2023-04-30T05:07:06.387Z,5.63
2023-04-30T05:09:32.829Z,5.80
2023-04-30T05:11:59.281Z,6.57
2023-04-30T05:14:25.669Z,6.33
2023-04-30T05:16:52.059Z,6.80
2023-04-30T05:19:18.526Z,6.40
2023-04-30T05:21:44.914Z,6.40
2023-04-30T05:24:11.344Z,6.17
2023-04-30T05:26:37.713Z,7.00
2023-04-30T05:29:04.132Z,6.70
2023-04-30T05:31:32.207Z,6.47
2023-04-30T05:33:58.688Z,6.40
2023-04-30T05:36:26.111Z,6.50
2023-04-30T05:38:52.531Z,6.17
2023-04-30T05:41:18.914Z,6.63
2023-04-30T05:43:45.289Z,6.50
2023-04-30T05:46:11.756Z,6.40
2023-04-30T05:48:39.093Z,6.13
2023-04-30T05:51:07.142Z,6.07
2023-04-30T05:53:34.585Z,5.70
2023-04-30T05:56:01.043Z,6.83
2023-04-30T05:58:27.445Z,6.53
2023-04-30T06:00:54.557Z,5.87
2023-04-30T06:03:21.074Z,6.10
2023-04-30T06:05:48.126Z,5.83
2023-04-30T06:08:14.609Z,4.83
2023-04-30T06:10:41.174Z,5.33
2023-04-30T06:13:07.769Z,4.30
2023-04-30T06:15:34.216Z,4.20
2023-04-30T06:18:00.804Z,4.40
2023-04-30T06:20:27.556Z,3.93
2023-04-30T06:22:54.063Z,3.47
2023-04-30T06:25:23.605Z,4.00
2023-04-30T06:27:51.629Z,3.83
2023-04-30T06:30:18.075Z,3.53
2023-04-30T06:32:44.628Z,3.70
2023-04-30T06:35:11.092Z,3.60
2023-04-30T06:37:38.063Z,2.87
2023-04-30T06:40:06.180Z,2.63
2023-04-30T06:42:34.494Z,3.13
2023-04-30T06:45:04.172Z,2.47
2023-04-30T06:47:34.566Z,3.37
2023-04-30T06:50:01.357Z,3.80
2023-04-30T06:52:27.968Z,3.20
2023-04-30T06:54:54.385Z,3.03
2023-04-30T06:57:20.769Z,2.90
2023-04-30T06:59:47.795Z,2.90
2023-04-30T07:02:14.233Z,2.83
2023-04-30T07:04:40.799Z,2.60
2023-04-30T07:07:07.157Z,2.70
2023-04-30T07:09:33.600Z,3.03
2023-04-30T07:11:59.993Z,3.33
2023-04-30T07:14:26.703Z,2.80
2023-04-30T07:16:53.455Z,2.80
2023-04-30T07:19:19.941Z,3.10
2023-04-30T07:21:46.349Z,2.43
2023-04-30T07:24:12.729Z,3.80
2023-04-30T07:26:39.100Z,2.30
2023-04-30T07:29:05.485Z,2.50
2023-04-30T07:31:33.324Z,2.67
2023-04-30T07:33:59.961Z,2.10
2023-04-30T07:36:27.497Z,2.60
2023-04-30T07:38:53.974Z,2.27
2023-04-30T07:41:20.480Z,2.30
2023-04-30T07:43:46.915Z,2.07
2023-04-30T07:46:13.303Z,2.43
2023-04-30T07:48:39.752Z,3.27
2023-04-30T07:51:06.180Z,2.53
2023-04-30T07:53:32.649Z,2.77
2023-04-30T07:55:59.032Z,2.63
2023-04-30T07:58:25.513Z,2.80
2023-04-30T08:00:52.026Z,2.20
2023-04-30T08:03:20.012Z,2.40
2023-04-30T08:05:47.427Z,2.33
2023-04-30T08:08:13.816Z,2.50
2023-04-30T08:10:41.819Z,2.23
2023-04-30T08:13:08.241Z,2.43
2023-04-30T08:15:34.656Z,2.60
2023-04-30T08:18:01.227Z,2.70
2023-04-30T08:20:27.673Z,2.40
2023-04-30T08:22:54.333Z,1.93
2023-04-30T08:25:20.894Z,2.67
2023-04-30T08:27:47.609Z,2.50
2023-04-30T08:30:14.113Z,2.57
2023-04-30T08:32:41.381Z,2.77
2023-04-30T08:35:08.674Z,2.70
2023-04-30T08:37:35.307Z,2.30
2023-04-30T08:40:01.787Z,2.30
2023-04-30T08:42:32.290Z,2.83
2023-04-30T08:45:00.994Z,2.80
2023-04-30T08:47:27.798Z,2.40
2023-04-30T08:49:54.602Z,2.30
2023-04-30T08:52:21.686Z,2.50
2023-04-30T08:54:48.673Z,2.70
2023-04-30T08:57:15.054Z,2.87
2023-04-30T08:59:41.571Z,2.50
2023-04-30T09:02:10.197Z,2.60
2023-04-30T09:04:36.666Z,2.60
2023-04-30T09:07:05.589Z,2.90
2023-04-30T09:09:38.364Z,2.50
2023-04-30T09:12:18.846Z,2.80
2023-04-30T09:15:04.452Z,2.60
2023-04-30T09:17:32.012Z,2.60
2023-04-30T09:20:08.969Z,2.97
2023-04-30T09:22:36.858Z,2.20
2023-04-30T09:25:03.460Z,2.23
2023-04-30T09:27:29.923Z,2.90
2023-04-30T09:29:56.617Z,2.87
2023-04-30T09:32:23.380Z,2.30
2023-04-30T09:34:49.821Z,2.53
2023-04-30T09:37:16.266Z,2.70
2023-04-30T09:39:54.435Z,2.97
2023-04-30T09:42:21.240Z,2.63
2023-04-30T09:44:48.409Z,2.50
2023-04-30T09:47:19.310Z,3.03
2023-04-30T09:49:52.354Z,2.10
2023-04-30T09:52:19.658Z,2.87
2023-04-30T09:54:46.622Z,2.37
2023-04-30T09:57:14.728Z,2.50
2023-04-30T09:59:46.404Z,2.30
2023-04-30T10:02:16.137Z,2.80
2023-04-30T10:04:44.557Z,3.37
2023-04-30T10:07:21.775Z,2.20
2023-04-30T10:09:51.662Z,2.60
2023-04-30T10:12:22.673Z,3.07
2023-04-30T10:14:57.562Z,2.57
2023-04-30T10:17:27.848Z,2.53
2023-04-30T10:19:58.978Z,2.63
2023-04-30T10:22:26.060Z,2.70
2023-04-30T10:24:52.545Z,2.83
2023-04-30T10:27:19.363Z,2.40
2023-04-30T10:29:46.168Z,2.50
2023-04-30T10:32:13.567Z,2.90
2023-04-30T10:34:51.177Z,2.50
2023-04-30T10:37:26.487Z,2.57
2023-04-30T10:39:53.465Z,2.20
2023-04-30T10:42:20.041Z,2.57
2023-04-30T10:44:46.892Z,2.50
2023-04-30T10:47:13.490Z,3.50
2023-04-30T10:49:43.105Z,2.30
2023-04-30T10:52:11.465Z,3.03
2023-04-30T10:54:38.219Z,2.23
2023-04-30T10:57:12.589Z,2.90
2023-04-30T10:59:43.856Z,2.50
2023-04-30T11:02:11.006Z,2.30
2023-04-30T11:05:08.968Z,2.37
2023-04-30T11:07:36.127Z,2.70
2023-04-30T11:10:03.289Z,3.13
2023-04-30T11:12:30.373Z,2.60
2023-04-30T11:15:08.397Z,2.60
2023-04-30T11:17:35.071Z,2.73
2023-04-30T11:20:01.901Z,2.37
2023-04-30T11:22:36.009Z,2.77
2023-04-30T11:25:04.481Z,3.00
2023-04-30T11:27:34.905Z,3.37
2023-04-30T11:30:03.134Z,2.67
2023-04-30T11:32:34.878Z,2.40
2023-04-30T11:35:06.010Z,2.57
2023-04-30T11:37:35.179Z,2.67
2023-04-30T11:40:07.472Z,2.30
2023-04-30T11:42:39.240Z,2.50
2023-04-30T11:45:07.412Z,2.67
2023-04-30T11:47:44.143Z,2.60
2023-04-30T11:50:12.904Z,2.00
2023-04-30T11:52:40.533Z,2.80
2023-04-30T11:55:08.678Z,2.13
2023-04-30T11:57:40.714Z,2.47
2023-04-30T12:00:11.898Z,2.60
2023-04-30T12:02:39.799Z,2.73
2023-04-30T12:05:13.622Z,2.20
2023-04-30T12:07:40.031Z,2.47
2023-04-30T12:10:07.419Z,2.17
2023-04-30T12:12:37.028Z,2.50
2023-04-30T12:15:17.822Z,2.30
2023-04-30T12:17:45.093Z,2.23
2023-04-30T12:20:13.465Z,2.07
2023-04-30T12:22:40.691Z,2.37
2023-04-30T12:25:10.010Z,2.47
2023-04-30T12:27:36.633Z,2.33
2023-04-30T12:30:08.082Z,2.20
2023-04-30T12:32:45.447Z,2.27
2023-04-30T12:35:20.989Z,2.20
2023-04-30T12:37:54.964Z,2.40
2023-04-30T12:40:27.055Z,2.20
2023-04-30T12:43:01.368Z,2.20
2023-04-30T12:45:54.099Z,2.50
2023-04-30T12:48:22.937Z,1.90
2023-04-30T12:50:58.623Z,3.93
2023-04-30T12:53:25.109Z,3.43
2023-04-30T12:56:12.357Z,2.30
2023-04-30T12:58:39.381Z,2.10
2023-04-30T13:01:06.352Z,2.10
2023-04-30T13:03:33.062Z,2.00
2023-04-30T13:06:01.570Z,1.90
2023-04-30T13:08:28.036Z,1.80
2023-04-30T13:10:54.457Z,1.50
2023-04-30T13:13:21.279Z,2.10
2023-04-30T13:15:48.124Z,1.80
2023-04-30T13:18:16.533Z,1.83
2023-04-30T13:20:45.898Z,2.10
2023-04-30T13:23:12.697Z,2.10
2023-04-30T13:25:40.030Z,1.93
2023-04-30T13:28:06.524Z,1.73
2023-04-30T13:30:34.104Z,2.20
2023-04-30T13:33:01.042Z,1.83
2023-04-30T13:35:31.285Z,2.10
2023-04-30T13:37:59.532Z,2.20
2023-04-30T13:40:26.212Z,2.33
2023-04-30T13:42:52.802Z,2.20
2023-04-30T13:45:19.476Z,2.00
2023-04-30T13:47:46.300Z,2.10
2023-04-30T13:50:12.954Z,2.40
2023-04-30T13:52:39.368Z,2.20
2023-04-30T13:55:06.418Z,1.97
2023-04-30T13:57:33.233Z,1.90
2023-04-30T14:00:00.033Z,1.80
2023-04-30T14:02:28.109Z,1.73
2023-04-30T14:05:05.384Z,1.90
2023-04-30T14:07:32.732Z,1.70
2023-04-30T14:09:59.321Z,1.87
2023-04-30T14:12:25.707Z,1.80
2023-04-30T14:14:52.549Z,1.60
2023-04-30T14:17:18.929Z,2.10
2023-04-30T14:19:45.397Z,2.20
2023-04-30T14:22:11.898Z,2.03
2023-04-30T14:24:38.968Z,2.17
2023-04-30T14:27:05.476Z,2.37
2023-04-30T14:29:31.978Z,1.57
2023-04-30T14:31:58.498Z,2.00
2023-04-30T14:34:25.449Z,2.03
2023-04-30T14:36:51.976Z,1.90
2023-04-30T14:39:18.707Z,1.87
2023-04-30T14:41:45.207Z,2.07
2023-04-30T14:44:11.647Z,1.90
2023-04-30T14:46:38.151Z,2.27
2023-04-30T14:49:04.716Z,2.40
2023-04-30T14:51:32.270Z,1.73
2023-04-30T14:53:59.270Z,1.80
2023-04-30T14:56:25.853Z,1.50
2023-04-30T14:58:52.352Z,1.80
2023-04-30T15:01:18.785Z,1.87
2023-04-30T15:03:46.046Z,1.90
2023-04-30T15:06:13.723Z,1.93
2023-04-30T15:08:40.851Z,2.17
2023-04-30T15:11:09.692Z,1.70
2023-04-30T15:13:39.793Z,1.70
2023-04-30T15:16:07.350Z,1.80
2023-04-30T15:18:35.177Z,2.00
2023-04-30T15:21:02.140Z,2.00
2023-04-30T15:23:28.812Z,2.17
2023-04-30T15:25:55.604Z,2.00
2023-04-30T15:28:23.444Z,2.00
2023-04-30T15:30:50.791Z,1.90
2023-04-30T15:33:17.421Z,1.70
2023-04-30T15:35:43.930Z,1.83
2023-04-30T15:38:10.326Z,1.80
2023-04-30T15:40:36.990Z,1.93
2023-04-30T15:43:04.769Z,1.67
2023-04-30T15:45:33.527Z,1.80
2023-04-30T15:48:00.901Z,1.90
2023-04-30T15:50:27.545Z,2.30
2023-04-30T15:52:53.958Z,1.90
2023-04-30T15:55:20.567Z,2.07
2023-04-30T15:57:47.446Z,2.20
2023-04-30T16:00:15.255Z,2.10
2023-04-30T16:02:41.903Z,1.80
2023-04-30T16:05:08.911Z,1.83
2023-04-30T16:07:35.628Z,2.20
2023-04-30T16:10:02.895Z,2.23
2023-04-30T16:12:29.337Z,2.10
2023-04-30T16:14:55.986Z,1.83
2023-04-30T16:17:22.419Z,2.47
2023-04-30T16:19:48.878Z,2.00
2023-04-30T16:22:17.067Z,1.90
2023-04-30T16:24:43.623Z,2.33
2023-04-30T16:27:10.118Z,1.90
2023-04-30T16:29:36.580Z,1.90
2023-04-30T16:32:02.984Z,1.40
2023-04-30T16:34:29.627Z,2.23
2023-04-30T16:36:56.297Z,1.93
2023-04-30T16:39:22.699Z,2.17
2023-04-30T16:41:49.172Z,1.70
2023-04-30T16:44:15.526Z,1.90
2023-04-30T16:46:41.980Z,2.00
2023-04-30T16:49:08.419Z,2.13
2023-04-30T16:51:34.954Z,2.40
2023-04-30T16:54:01.346Z,2.13
2023-04-30T16:56:27.849Z,1.87
2023-04-30T16:58:54.652Z,1.70
2023-04-30T17:01:21.147Z,2.03
2023-04-30T17:03:47.778Z,2.03
2023-04-30T17:06:14.559Z,1.90
2023-04-30T17:08:41.147Z,1.80
2023-04-30T17:11:08.073Z,2.27
2023-04-30T17:13:34.605Z,1.70
2023-04-30T17:16:02.224Z,2.13
2023-04-30T17:18:28.963Z,2.03
2023-04-30T17:20:55.492Z,2.20
2023-04-30T17:23:21.959Z,2.07
2023-04-30T17:25:48.491Z,2.00
2023-04-30T17:28:15.056Z,2.03
2023-04-30T17:30:41.972Z,1.87
2023-04-30T17:33:08.830Z,2.00
2023-04-30T17:35:35.552Z,1.70
2023-04-30T17:38:01.917Z,2.47
2023-04-30T17:40:28.407Z,2.07
2023-04-30T17:42:54.850Z,4.30
2023-04-30T17:45:21.482Z,5.37
2023-04-30T17:47:48.042Z,18.13
2023-04-30T17:50:15.185Z,22.37
2023-04-30T17:52:41.678Z,5.10
2023-04-30T17:55:08.565Z,2.90
2023-04-30T17:57:35.904Z,8.27
2023-04-30T18:00:02.564Z,3.13
2023-04-30T18:02:29.658Z,2.07
2023-04-30T18:04:56.506Z,1.90
2023-04-30T18:07:22.994Z,2.60
2023-04-30T18:09:49.510Z,3.63
2023-04-30T18:12:17.565Z,3.47
2023-04-30T18:14:44.306Z,2.80
2023-04-30T18:17:11.383Z,2.50
2023-04-30T18:19:43.924Z,2.73
2023-04-30T18:22:12.237Z,2.20
2023-04-30T18:24:38.894Z,3.40
2023-04-30T18:27:06.989Z,3.90
2023-04-30T18:29:33.550Z,6.93
2023-04-30T18:32:01.729Z,5.40
2023-04-30T18:34:28.463Z,4.87
2023-04-30T18:36:55.105Z,6.73
2023-04-30T18:39:22.402Z,12.97
2023-04-30T18:41:49.318Z,14.43
2023-04-30T18:44:16.149Z,11.40
2023-04-30T18:46:42.776Z,7.53
2023-04-30T18:49:09.363Z,5.73
2023-04-30T18:51:35.993Z,4.80
2023-04-30T18:54:02.443Z,4.53
2023-04-30T18:56:29.102Z,9.33
2023-04-30T18:58:55.667Z,4.37
2023-04-30T19:01:24.284Z,3.53
2023-04-30T19:03:50.885Z,3.70
2023-04-30T19:06:17.505Z,3.43
2023-04-30T19:08:46.418Z,3.57
2023-04-30T19:11:13.806Z,3.73
2023-04-30T19:13:40.422Z,3.30
2023-04-30T19:16:06.854Z,3.63
2023-04-30T19:18:34.926Z,4.03
2023-04-30T19:21:02.661Z,3.73
2023-04-30T19:23:30.734Z,3.87
2023-04-30T19:25:58.080Z,5.73
2023-04-30T19:28:24.737Z,7.30
2023-04-30T19:30:54.862Z,8.33
2023-04-30T19:33:22.171Z,8.70
2023-04-30T19:35:55.033Z,7.37
2023-04-30T19:38:21.868Z,8.33
2023-04-30T19:40:52.586Z,8.73
2023-04-30T19:43:20.130Z,9.10
2023-04-30T19:45:47.990Z,9.20
2023-04-30T19:48:14.748Z,9.40
2023-04-30T19:50:43.320Z,9.37
2023-04-30T19:53:10.005Z,22.37
2023-04-30T19:55:36.682Z,90.63
2023-04-30T19:58:04.600Z,105.60
2023-04-30T20:00:31.744Z,26.33
2023-04-30T20:02:58.381Z,12.37
2023-04-30T20:05:24.925Z,33.37
2023-04-30T20:07:51.393Z,4.60
2023-04-30T20:10:19.571Z,3.80
2023-04-30T20:12:46.008Z,3.73
2023-04-30T20:15:12.383Z,3.67
2023-04-30T20:17:39.000Z,3.33
2023-04-30T20:20:06.387Z,3.63
2023-04-30T20:22:32.809Z,3.47
2023-04-30T20:24:59.443Z,3.13
2023-04-30T20:27:26.186Z,3.37
2023-04-30T20:29:52.627Z,3.30
2023-04-30T20:32:19.081Z,3.40
2023-04-30T20:34:45.542Z,3.23
2023-04-30T20:37:12.048Z,3.40
2023-04-30T20:39:38.868Z,3.70
2023-04-30T20:42:05.270Z,3.20
2023-04-30T20:44:31.673Z,3.57
2023-04-30T20:46:58.362Z,3.70
2023-04-30T20:49:26.970Z,3.43
2023-04-30T20:51:53.369Z,3.70
2023-04-30T20:54:20.082Z,3.97
2023-04-30T20:56:47.223Z,4.10
2023-04-30T20:59:14.300Z,3.90
2023-04-30T21:01:41.226Z,3.53
2023-04-30T21:04:07.907Z,3.43
2023-04-30T21:06:34.324Z,4.07
2023-04-30T21:09:00.908Z,4.00
2023-04-30T21:11:28.135Z,4.33
2023-04-30T21:13:54.944Z,4.03
2023-04-30T21:16:21.800Z,4.97
2023-04-30T21:18:48.804Z,4.07
2023-04-30T21:21:15.507Z,4.47
2023-04-30T21:23:41.861Z,4.47
2023-04-30T21:26:08.257Z,4.57
2023-04-30T21:28:34.729Z,5.67
2023-04-30T21:31:06.276Z,4.17
2023-04-30T21:33:34.389Z,3.80
2023-04-30T21:36:00.987Z,4.30
2023-04-30T21:38:27.353Z,4.67
2023-04-30T21:40:53.824Z,4.30
2023-04-30T21:43:20.269Z,4.23
2023-04-30T21:45:46.790Z,4.60
2023-04-30T21:48:13.175Z,4.90
2023-04-30T21:50:40.036Z,5.03
2023-04-30T21:53:06.457Z,4.60
2023-04-30T21:55:32.857Z,4.80
2023-04-30T21:57:59.352Z,4.80
2023-04-30T22:00:25.765Z,5.40
2023-04-30T22:02:52.255Z,5.00
2023-04-30T22:05:19.938Z,4.70
2023-04-30T22:07:47.284Z,5.43
2023-04-30T22:10:15.611Z,5.00
2023-04-30T22:12:43.852Z,5.67
2023-04-30T22:15:12.239Z,6.17
2023-04-30T22:17:38.729Z,5.40
2023-04-30T22:20:06.623Z,5.87
2023-04-30T22:22:33.147Z,5.60
2023-04-30T22:24:59.617Z,5.90
2023-04-30T22:27:25.997Z,5.57
2023-04-30T22:29:52.599Z,5.13
2023-04-30T22:32:19.493Z,6.30
2023-04-30T22:34:45.952Z,5.37
2023-04-30T22:37:12.413Z,5.70
2023-04-30T22:39:39.300Z,5.83
2023-04-30T22:42:05.923Z,5.80
2023-04-30T22:44:32.973Z,6.00
2023-04-30T22:46:59.504Z,5.63
2023-04-30T22:49:31.208Z,5.00
2023-04-30T22:51:58.245Z,5.50
2023-04-30T22:54:25.268Z,5.80
2023-04-30T22:56:51.930Z,5.70
2023-04-30T22:59:18.296Z,5.17
2023-04-30T23:01:45.067Z,5.00
2023-04-30T23:04:12.582Z,5.03
2023-04-30T23:06:39.539Z,5.40
2023-04-30T23:09:05.995Z,6.30
2023-04-30T23:11:32.441Z,5.77
2023-04-30T23:13:58.895Z,6.10
2023-04-30T23:16:25.368Z,5.40
2023-04-30T23:18:51.925Z,5.40
2023-04-30T23:21:18.334Z,5.67
2023-04-30T23:23:45.235Z,5.87
2023-04-30T23:26:11.621Z,5.87
2023-04-30T23:28:38.171Z,5.33
2023-04-30T23:31:04.597Z,4.77
2023-04-30T23:33:31.010Z,6.40
2023-04-30T23:35:57.539Z,5.60
2023-04-30T23:38:23.991Z,5.60
2023-04-30T23:40:50.405Z,6.33
2023-04-30T23:43:16.773Z,5.90
2023-04-30T23:45:43.282Z,7.20
2023-04-30T23:48:10.434Z,6.80
2023-04-30T23:50:38.380Z,5.80
2023-04-30T23:53:04.839Z,7.23
2023-04-30T23:55:31.215Z,6.93
2023-04-30T23:57:57.583Z,8.03
